sensor_id;sensor_type;location;lat;lon;timestamp;temperature;humidity
20672;DHT22;10495;50.922;4.760;2023-12-28T00:00:18;12.30;87.60
20672;DHT22;10495;50.922;4.760;2023-12-28T00:02:43;12.40;87.20
20672;DHT22;10495;50.922;4.760;2023-12-28T00:05:09;12.40;87.20
20672;DHT22;10495;50.922;4.760;2023-12-28T00:07:35;12.40;87.20
20672;DHT22;10495;50.922;4.760;2023-12-28T00:10:02;12.40;87.30
20672;DHT22;10495;50.922;4.760;2023-12-28T00:12:28;12.40;87.10
20672;DHT22;10495;50.922;4.760;2023-12-28T00:14:53;12.30;87.50
20672;DHT22;10495;50.922;4.760;2023-12-28T00:17:19;12.20;87.90
20672;DHT22;10495;50.922;4.760;2023-12-28T00:19:45;12.20;88.00
20672;DHT22;10495;50.922;4.760;2023-12-28T00:22:11;12.20;88.20
20672;DHT22;10495;50.922;4.760;2023-12-28T00:24:37;12.00;89.00
20672;DHT22;10495;50.922;4.760;2023-12-28T00:27:03;12.10;88.40
20672;DHT22;10495;50.922;4.760;2023-12-28T00:29:29;12.20;88.60
20672;DHT22;10495;50.922;4.760;2023-12-28T00:31:54;12.30;88.30
20672;DHT22;10495;50.922;4.760;2023-12-28T00:34:20;12.10;88.90
20672;DHT22;10495;50.922;4.760;2023-12-28T00:36:46;12.20;88.60
20672;DHT22;10495;50.922;4.760;2023-12-28T00:39:12;12.30;88.50
20672;DHT22;10495;50.922;4.760;2023-12-28T00:41:38;12.40;87.90
20672;DHT22;10495;50.922;4.760;2023-12-28T00:44:04;12.20;88.50
20672;DHT22;10495;50.922;4.760;2023-12-28T00:46:32;12.30;88.40
20672;DHT22;10495;50.922;4.760;2023-12-28T00:48:57;12.10;88.50
20672;DHT22;10495;50.922;4.760;2023-12-28T00:51:23;12.30;88.30
20672;DHT22;10495;50.922;4.760;2023-12-28T00:53:49;12.00;89.10
20672;DHT22;10495;50.922;4.760;2023-12-28T00:56:14;12.00;89.30
20672;DHT22;10495;50.922;4.760;2023-12-28T00:58:40;12.00;89.30
20672;DHT22;10495;50.922;4.760;2023-12-28T01:01:06;12.30;88.30
20672;DHT22;10495;50.922;4.760;2023-12-28T01:03:32;12.30;88.10
20672;DHT22;10495;50.922;4.760;2023-12-28T01:05:57;12.30;88.50
20672;DHT22;10495;50.922;4.760;2023-12-28T01:08:23;12.20;89.20
20672;DHT22;10495;50.922;4.760;2023-12-28T01:10:48;12.30;88.60
20672;DHT22;10495;50.922;4.760;2023-12-28T01:13:14;12.00;88.90
20672;DHT22;10495;50.922;4.760;2023-12-28T01:15:40;12.00;89.50
20672;DHT22;10495;50.922;4.760;2023-12-28T01:18:06;12.00;90.00
20672;DHT22;10495;50.922;4.760;2023-12-28T01:20:32;11.90;90.00
20672;DHT22;10495;50.922;4.760;2023-12-28T01:22:58;11.90;90.00
20672;DHT22;10495;50.922;4.760;2023-12-28T01:25:23;12.10;89.50
20672;DHT22;10495;50.922;4.760;2023-12-28T01:27:49;12.20;89.50
20672;DHT22;10495;50.922;4.760;2023-12-28T01:30:15;12.30;89.00
20672;DHT22;10495;50.922;4.760;2023-12-28T01:32:40;12.10;89.40
20672;DHT22;10495;50.922;4.760;2023-12-28T01:35:06;12.20;89.00
20672;DHT22;10495;50.922;4.760;2023-12-28T01:37:32;12.00;89.60
20672;DHT22;10495;50.922;4.760;2023-12-28T01:39:59;12.20;88.70
20672;DHT22;10495;50.922;4.760;2023-12-28T01:42:26;12.10;89.10
20672;DHT22;10495;50.922;4.760;2023-12-28T01:44:52;12.10;89.20
20672;DHT22;10495;50.922;4.760;2023-12-28T01:47:18;11.80;90.00
20672;DHT22;10495;50.922;4.760;2023-12-28T01:49:44;11.90;90.00
20672;DHT22;10495;50.922;4.760;2023-12-28T01:52:10;12.00;89.40
20672;DHT22;10495;50.922;4.760;2023-12-28T01:54:37;12.00;89.40
20672;DHT22;10495;50.922;4.760;2023-12-28T01:57:03;11.90;89.70
20672;DHT22;10495;50.922;4.760;2023-12-28T01:59:30;12.00;89.80
20672;DHT22;10495;50.922;4.760;2023-12-28T02:01:57;11.90;90.00
20672;DHT22;10495;50.922;4.760;2023-12-28T02:04:23;11.70;90.20
20672;DHT22;10495;50.922;4.760;2023-12-28T02:06:57;11.70;90.40
20672;DHT22;10495;50.922;4.760;2023-12-28T02:09:24;11.70;90.40
20672;DHT22;10495;50.922;4.760;2023-12-28T02:11:49;11.90;90.10
20672;DHT22;10495;50.922;4.760;2023-12-28T02:14:15;11.80;90.10
20672;DHT22;10495;50.922;4.760;2023-12-28T02:16:46;12.10;89.70
20672;DHT22;10495;50.922;4.760;2023-12-28T02:19:25;11.90;89.90
20672;DHT22;10495;50.922;4.760;2023-12-28T02:21:56;12.10;89.60
20672;DHT22;10495;50.922;4.760;2023-12-28T02:24:22;11.90;89.80
20672;DHT22;10495;50.922;4.760;2023-12-28T02:26:47;11.70;90.30
20672;DHT22;10495;50.922;4.760;2023-12-28T02:29:13;11.90;90.20
20672;DHT22;10495;50.922;4.760;2023-12-28T02:31:45;11.90;90.10
20672;DHT22;10495;50.922;4.760;2023-12-28T02:34:21;11.90;90.00
20672;DHT22;10495;50.922;4.760;2023-12-28T02:36:48;11.90;90.10
20672;DHT22;10495;50.922;4.760;2023-12-28T02:39:15;11.70;90.30
20672;DHT22;10495;50.922;4.760;2023-12-28T02:41:45;11.70;90.30
20672;DHT22;10495;50.922;4.760;2023-12-28T02:44:12;11.80;90.20
20672;DHT22;10495;50.922;4.760;2023-12-28T02:46:37;11.80;90.20
20672;DHT22;10495;50.922;4.760;2023-12-28T02:49:03;11.80;90.10
20672;DHT22;10495;50.922;4.760;2023-12-28T02:51:29;11.70;90.30
20672;DHT22;10495;50.922;4.760;2023-12-28T02:53:54;11.60;90.50
20672;DHT22;10495;50.922;4.760;2023-12-28T02:56:20;11.60;90.50
20672;DHT22;10495;50.922;4.760;2023-12-28T02:58:45;11.50;90.80
20672;DHT22;10495;50.922;4.760;2023-12-28T03:01:11;11.60;90.70
20672;DHT22;10495;50.922;4.760;2023-12-28T03:03:37;11.80;90.50
20672;DHT22;10495;50.922;4.760;2023-12-28T03:06:02;12.00;90.20
20672;DHT22;10495;50.922;4.760;2023-12-28T03:08:28;12.00;89.90
20672;DHT22;10495;50.922;4.760;2023-12-28T03:10:54;11.80;90.30
20672;DHT22;10495;50.922;4.760;2023-12-28T03:13:20;11.90;90.10
20672;DHT22;10495;50.922;4.760;2023-12-28T03:15:46;11.90;89.90
20672;DHT22;10495;50.922;4.760;2023-12-28T03:18:12;12.00;90.10
20672;DHT22;10495;50.922;4.760;2023-12-28T03:20:37;11.90;90.10
20672;DHT22;10495;50.922;4.760;2023-12-28T03:23:03;11.90;90.20
20672;DHT22;10495;50.922;4.760;2023-12-28T03:25:29;11.70;90.50
20672;DHT22;10495;50.922;4.760;2023-12-28T03:27:55;11.80;90.40
20672;DHT22;10495;50.922;4.760;2023-12-28T03:30:21;11.80;90.40
20672;DHT22;10495;50.922;4.760;2023-12-28T03:32:46;11.80;90.50
20672;DHT22;10495;50.922;4.760;2023-12-28T03:35:12;11.80;90.30
20672;DHT22;10495;50.922;4.760;2023-12-28T03:37:38;12.00;90.00
20672;DHT22;10495;50.922;4.760;2023-12-28T03:40:04;12.00;90.20
20672;DHT22;10495;50.922;4.760;2023-12-28T03:42:30;11.90;90.00
20672;DHT22;10495;50.922;4.760;2023-12-28T03:44:56;11.80;90.30
20672;DHT22;10495;50.922;4.760;2023-12-28T03:47:21;11.80;90.20
20672;DHT22;10495;50.922;4.760;2023-12-28T03:49:48;11.70;90.20
20672;DHT22;10495;50.922;4.760;2023-12-28T03:52:14;11.80;90.20
20672;DHT22;10495;50.922;4.760;2023-12-28T03:54:39;11.90;90.00
20672;DHT22;10495;50.922;4.760;2023-12-28T03:57:05;11.90;90.00
20672;DHT22;10495;50.922;4.760;2023-12-28T03:59:31;12.10;89.50
20672;DHT22;10495;50.922;4.760;2023-12-28T04:01:56;12.00;89.40
20672;DHT22;10495;50.922;4.760;2023-12-28T04:04:22;11.80;89.90
20672;DHT22;10495;50.922;4.760;2023-12-28T04:06:48;11.90;89.70
20672;DHT22;10495;50.922;4.760;2023-12-28T04:09:13;11.90;89.70
20672;DHT22;10495;50.922;4.760;2023-12-28T04:11:39;12.10;88.80
20672;DHT22;10495;50.922;4.760;2023-12-28T04:14:05;11.90;89.20
20672;DHT22;10495;50.922;4.760;2023-12-28T04:16:31;11.80;89.60
20672;DHT22;10495;50.922;4.760;2023-12-28T04:18:57;11.90;89.40
20672;DHT22;10495;50.922;4.760;2023-12-28T04:21:22;12.10;89.50
20672;DHT22;10495;50.922;4.760;2023-12-28T04:23:48;11.90;89.30
20672;DHT22;10495;50.922;4.760;2023-12-28T04:26:14;12.10;89.10
20672;DHT22;10495;50.922;4.760;2023-12-28T04:28:39;12.30;87.90
20672;DHT22;10495;50.922;4.760;2023-12-28T04:31:06;12.40;87.30
20672;DHT22;10495;50.922;4.760;2023-12-28T04:33:32;12.30;87.50
20672;DHT22;10495;50.922;4.760;2023-12-28T04:36:02;12.50;86.90
20672;DHT22;10495;50.922;4.760;2023-12-28T04:38:29;12.30;87.20
20672;DHT22;10495;50.922;4.760;2023-12-28T04:40:56;12.20;88.00
20672;DHT22;10495;50.922;4.760;2023-12-28T04:43:21;12.30;88.10
20672;DHT22;10495;50.922;4.760;2023-12-28T04:45:49;12.00;88.40
20672;DHT22;10495;50.922;4.760;2023-12-28T04:48:15;12.20;88.50
20672;DHT22;10495;50.922;4.760;2023-12-28T04:50:41;12.10;88.40
20672;DHT22;10495;50.922;4.760;2023-12-28T04:53:06;12.00;88.30
20672;DHT22;10495;50.922;4.760;2023-12-28T04:55:32;12.10;88.30
20672;DHT22;10495;50.922;4.760;2023-12-28T04:57:58;12.20;87.60
20672;DHT22;10495;50.922;4.760;2023-12-28T05:00:23;12.30;87.40
20672;DHT22;10495;50.922;4.760;2023-12-28T05:02:49;12.40;86.60
20672;DHT22;10495;50.922;4.760;2023-12-28T05:05:15;12.20;86.90
20672;DHT22;10495;50.922;4.760;2023-12-28T05:07:40;12.20;87.10
20672;DHT22;10495;50.922;4.760;2023-12-28T05:10:06;12.30;86.50
20672;DHT22;10495;50.922;4.760;2023-12-28T05:12:33;12.40;86.40
20672;DHT22;10495;50.922;4.760;2023-12-28T05:14:58;12.60;85.70
20672;DHT22;10495;50.922;4.760;2023-12-28T05:17:24;12.30;86.30
20672;DHT22;10495;50.922;4.760;2023-12-28T05:19:49;12.30;86.30
20672;DHT22;10495;50.922;4.760;2023-12-28T05:22:15;12.50;85.40
20672;DHT22;10495;50.922;4.760;2023-12-28T05:24:42;12.50;85.50
20672;DHT22;10495;50.922;4.760;2023-12-28T05:27:07;12.20;86.60
20672;DHT22;10495;50.922;4.760;2023-12-28T05:29:33;12.20;86.60
20672;DHT22;10495;50.922;4.760;2023-12-28T05:31:59;12.00;87.00
20672;DHT22;10495;50.922;4.760;2023-12-28T05:34:24;11.90;87.60
20672;DHT22;10495;50.922;4.760;2023-12-28T05:36:50;12.10;87.40
20672;DHT22;10495;50.922;4.760;2023-12-28T05:39:16;12.00;87.50
20672;DHT22;10495;50.922;4.760;2023-12-28T05:41:41;12.10;87.30
20672;DHT22;10495;50.922;4.760;2023-12-28T05:44:07;12.20;86.80
20672;DHT22;10495;50.922;4.760;2023-12-28T05:46:33;12.10;86.80
20672;DHT22;10495;50.922;4.760;2023-12-28T05:48:58;12.10;87.10
20672;DHT22;10495;50.922;4.760;2023-12-28T05:51:24;12.10;87.50
20672;DHT22;10495;50.922;4.760;2023-12-28T05:53:50;12.10;86.90
20672;DHT22;10495;50.922;4.760;2023-12-28T05:56:17;11.80;88.10
20672;DHT22;10495;50.922;4.760;2023-12-28T05:58:43;11.90;88.20
20672;DHT22;10495;50.922;4.760;2023-12-28T06:01:08;11.90;88.30
20672;DHT22;10495;50.922;4.760;2023-12-28T06:03:34;12.10;87.40
20672;DHT22;10495;50.922;4.760;2023-12-28T06:06:00;12.10;87.20
20672;DHT22;10495;50.922;4.760;2023-12-28T06:08:25;11.90;88.20
20672;DHT22;10495;50.922;4.760;2023-12-28T06:10:51;11.80;88.40
20672;DHT22;10495;50.922;4.760;2023-12-28T06:13:16;11.80;88.30
20672;DHT22;10495;50.922;4.760;2023-12-28T06:15:42;12.10;87.30
20672;DHT22;10495;50.922;4.760;2023-12-28T06:18:09;12.00;87.80
20672;DHT22;10495;50.922;4.760;2023-12-28T06:20:34;11.70;88.50
20672;DHT22;10495;50.922;4.760;2023-12-28T06:23:01;11.80;88.80
20672;DHT22;10495;50.922;4.760;2023-12-28T06:25:28;11.90;88.00
20672;DHT22;10495;50.922;4.760;2023-12-28T06:27:53;12.00;87.70
20672;DHT22;10495;50.922;4.760;2023-12-28T06:30:19;11.90;87.10
20672;DHT22;10495;50.922;4.760;2023-12-28T06:32:45;11.80;88.00
20672;DHT22;10495;50.922;4.760;2023-12-28T06:35:10;11.80;88.00
20672;DHT22;10495;50.922;4.760;2023-12-28T06:37:36;11.80;88.20
20672;DHT22;10495;50.922;4.760;2023-12-28T06:40:02;11.90;87.70
20672;DHT22;10495;50.922;4.760;2023-12-28T06:42:28;11.90;87.50
20672;DHT22;10495;50.922;4.760;2023-12-28T06:44:54;11.90;87.90
20672;DHT22;10495;50.922;4.760;2023-12-28T06:47:19;12.00;87.50
20672;DHT22;10495;50.922;4.760;2023-12-28T06:49:45;12.00;87.70
20672;DHT22;10495;50.922;4.760;2023-12-28T06:52:10;12.10;86.70
20672;DHT22;10495;50.922;4.760;2023-12-28T06:54:36;12.00;87.30
20672;DHT22;10495;50.922;4.760;2023-12-28T06:57:02;12.00;87.20
20672;DHT22;10495;50.922;4.760;2023-12-28T06:59:28;11.90;87.50
20672;DHT22;10495;50.922;4.760;2023-12-28T07:01:54;11.80;88.10
20672;DHT22;10495;50.922;4.760;2023-12-28T07:04:19;11.80;88.10
20672;DHT22;10495;50.922;4.760;2023-12-28T07:06:46;11.80;87.80
20672;DHT22;10495;50.922;4.760;2023-12-28T07:09:12;11.90;87.50
20672;DHT22;10495;50.922;4.760;2023-12-28T07:11:37;12.10;86.70
20672;DHT22;10495;50.922;4.760;2023-12-28T07:14:03;12.10;86.70
20672;DHT22;10495;50.922;4.760;2023-12-28T07:16:29;11.90;87.10
20672;DHT22;10495;50.922;4.760;2023-12-28T07:18:54;11.90;87.20
20672;DHT22;10495;50.922;4.760;2023-12-28T07:21:20;11.90;87.00
20672;DHT22;10495;50.922;4.760;2023-12-28T07:23:46;12.10;86.40
20672;DHT22;10495;50.922;4.760;2023-12-28T07:26:15;11.80;87.00
20672;DHT22;10495;50.922;4.760;2023-12-28T07:28:41;11.70;87.80
20672;DHT22;10495;50.922;4.760;2023-12-28T07:31:09;11.50;88.30
20672;DHT22;10495;50.922;4.760;2023-12-28T07:33:34;11.70;88.00
20672;DHT22;10495;50.922;4.760;2023-12-28T07:36:00;11.90;87.20
20672;DHT22;10495;50.922;4.760;2023-12-28T07:38:29;11.90;87.00
20672;DHT22;10495;50.922;4.760;2023-12-28T07:40:54;11.80;87.10
20672;DHT22;10495;50.922;4.760;2023-12-28T07:43:20;11.60;88.00
20672;DHT22;10495;50.922;4.760;2023-12-28T07:45:45;11.60;87.70
20672;DHT22;10495;50.922;4.760;2023-12-28T07:48:11;11.60;88.00
20672;DHT22;10495;50.922;4.760;2023-12-28T07:50:37;11.50;88.10
20672;DHT22;10495;50.922;4.760;2023-12-28T07:53:03;11.20;89.30
20672;DHT22;10495;50.922;4.760;2023-12-28T07:55:28;11.30;89.20
20672;DHT22;10495;50.922;4.760;2023-12-28T07:57:54;11.30;89.30
20672;DHT22;10495;50.922;4.760;2023-12-28T08:00:20;11.30;89.50
20672;DHT22;10495;50.922;4.760;2023-12-28T08:02:46;11.30;89.70
20672;DHT22;10495;50.922;4.760;2023-12-28T08:05:11;11.20;89.50
20672;DHT22;10495;50.922;4.760;2023-12-28T08:07:37;11.10;90.00
20672;DHT22;10495;50.922;4.760;2023-12-28T08:10:03;11.10;90.10
20672;DHT22;10495;50.922;4.760;2023-12-28T08:12:29;11.30;89.70
20672;DHT22;10495;50.922;4.760;2023-12-28T08:14:55;11.30;89.90
20672;DHT22;10495;50.922;4.760;2023-12-28T08:17:21;11.50;89.40
20672;DHT22;10495;50.922;4.760;2023-12-28T08:19:47;11.70;88.60
20672;DHT22;10495;50.922;4.760;2023-12-28T08:22:12;11.50;89.30
20672;DHT22;10495;50.922;4.760;2023-12-28T08:24:38;11.50;89.60
20672;DHT22;10495;50.922;4.760;2023-12-28T08:27:04;11.20;90.10
20672;DHT22;10495;50.922;4.760;2023-12-28T08:29:29;11.30;90.00
20672;DHT22;10495;50.922;4.760;2023-12-28T08:31:55;11.30;90.00
20672;DHT22;10495;50.922;4.760;2023-12-28T08:34:21;11.30;90.20
20672;DHT22;10495;50.922;4.760;2023-12-28T08:36:47;11.70;89.70
20672;DHT22;10495;50.922;4.760;2023-12-28T08:39:13;12.00;88.50
20672;DHT22;10495;50.922;4.760;2023-12-28T08:41:38;12.30;87.30
20672;DHT22;10495;50.922;4.760;2023-12-28T08:44:04;12.20;87.20
20672;DHT22;10495;50.922;4.760;2023-12-28T08:46:30;12.20;87.50
20672;DHT22;10495;50.922;4.760;2023-12-28T08:48:56;12.10;87.90
20672;DHT22;10495;50.922;4.760;2023-12-28T08:51:22;12.30;87.30
20672;DHT22;10495;50.922;4.760;2023-12-28T08:53:48;12.20;86.90
20672;DHT22;10495;50.922;4.760;2023-12-28T08:56:18;12.40;86.90
20672;DHT22;10495;50.922;4.760;2023-12-28T08:58:45;12.40;86.90
20672;DHT22;10495;50.922;4.760;2023-12-28T09:01:23;12.50;86.90
20672;DHT22;10495;50.922;4.760;2023-12-28T09:03:51;12.60;87.00
20672;DHT22;10495;50.922;4.760;2023-12-28T09:06:18;12.60;86.40
20672;DHT22;10495;50.922;4.760;2023-12-28T09:08:45;12.80;85.90
20672;DHT22;10495;50.922;4.760;2023-12-28T09:11:13;12.60;86.30
20672;DHT22;10495;50.922;4.760;2023-12-28T09:13:39;12.50;86.40
20672;DHT22;10495;50.922;4.760;2023-12-28T09:16:13;12.60;86.30
20672;DHT22;10495;50.922;4.760;2023-12-28T09:18:40;12.80;85.70
20672;DHT22;10495;50.922;4.760;2023-12-28T09:21:06;12.80;85.70
20672;DHT22;10495;50.922;4.760;2023-12-28T09:23:33;12.80;85.10
20672;DHT22;10495;50.922;4.760;2023-12-28T09:26:00;12.80;85.50
20672;DHT22;10495;50.922;4.760;2023-12-28T09:28:26;12.70;85.40
20672;DHT22;10495;50.922;4.760;2023-12-28T09:30:52;12.60;85.40
20672;DHT22;10495;50.922;4.760;2023-12-28T09:33:17;12.60;85.80
20672;DHT22;10495;50.922;4.760;2023-12-28T09:35:43;12.60;85.90
20672;DHT22;10495;50.922;4.760;2023-12-28T09:38:09;12.70;85.60
20672;DHT22;10495;50.922;4.760;2023-12-28T09:40:36;12.70;85.40
20672;DHT22;10495;50.922;4.760;2023-12-28T09:43:37;12.70;85.00
20672;DHT22;10495;50.922;4.760;2023-12-28T09:46:07;12.80;85.00
20672;DHT22;10495;50.922;4.760;2023-12-28T09:48:33;12.70;85.60
20672;DHT22;10495;50.922;4.760;2023-12-28T09:51:00;12.70;85.00
20672;DHT22;10495;50.922;4.760;2023-12-28T09:53:26;12.80;85.00
20672;DHT22;10495;50.922;4.760;2023-12-28T09:55:52;12.90;84.70
20672;DHT22;10495;50.922;4.760;2023-12-28T09:58:19;12.80;84.60
20672;DHT22;10495;50.922;4.760;2023-12-28T10:00:47;13.00;84.00
20672;DHT22;10495;50.922;4.760;2023-12-28T10:03:13;13.00;83.80
20672;DHT22;10495;50.922;4.760;2023-12-28T10:05:43;12.90;84.30
20672;DHT22;10495;50.922;4.760;2023-12-28T10:08:11;12.90;84.10
20672;DHT22;10495;50.922;4.760;2023-12-28T10:10:38;12.90;84.10
20672;DHT22;10495;50.922;4.760;2023-12-28T10:13:04;12.80;84.60
20672;DHT22;10495;50.922;4.760;2023-12-28T10:15:31;12.90;84.70
20672;DHT22;10495;50.922;4.760;2023-12-28T10:17:56;13.00;84.20
20672;DHT22;10495;50.922;4.760;2023-12-28T10:20:25;13.10;83.70
20672;DHT22;10495;50.922;4.760;2023-12-28T10:22:51;12.90;84.50
20672;DHT22;10495;50.922;4.760;2023-12-28T10:25:17;13.10;83.90
20672;DHT22;10495;50.922;4.760;2023-12-28T10:27:43;13.20;83.50
20672;DHT22;10495;50.922;4.760;2023-12-28T10:30:09;13.20;83.10
20672;DHT22;10495;50.922;4.760;2023-12-28T10:32:40;13.30;83.20
20672;DHT22;10495;50.922;4.760;2023-12-28T10:35:07;13.20;83.70
20672;DHT22;10495;50.922;4.760;2023-12-28T10:37:35;13.20;84.00
20672;DHT22;10495;50.922;4.760;2023-12-28T10:40:06;13.40;83.00
20672;DHT22;10495;50.922;4.760;2023-12-28T10:42:33;13.60;82.20
20672;DHT22;10495;50.922;4.760;2023-12-28T10:45:04;13.40;82.80
20672;DHT22;10495;50.922;4.760;2023-12-28T10:47:37;13.50;82.10
20672;DHT22;10495;50.922;4.760;2023-12-28T10:50:04;13.40;82.40
20672;DHT22;10495;50.922;4.760;2023-12-28T10:52:32;13.40;82.30
20672;DHT22;10495;50.922;4.760;2023-12-28T10:58:32;13.40;82.40
20672;DHT22;10495;50.922;4.760;2023-12-28T11:00:41;13.60;82.40
20672;DHT22;10495;50.922;4.760;2023-12-28T11:03:11;13.60;82.80
20672;DHT22;10495;50.922;4.760;2023-12-28T11:05:40;13.60;81.70
20672;DHT22;10495;50.922;4.760;2023-12-28T11:08:09;13.70;81.70
20672;DHT22;10495;50.922;4.760;2023-12-28T11:10:37;13.80;81.20
20672;DHT22;10495;50.922;4.760;2023-12-28T11:13:05;13.70;81.70
20672;DHT22;10495;50.922;4.760;2023-12-28T11:15:31;13.70;82.10
20672;DHT22;10495;50.922;4.760;2023-12-28T11:17:57;13.70;81.60
20672;DHT22;10495;50.922;4.760;2023-12-28T11:20:23;13.80;81.40
20672;DHT22;10495;50.922;4.760;2023-12-28T11:22:50;13.80;81.40
20672;DHT22;10495;50.922;4.760;2023-12-28T11:25:19;13.90;81.50
20672;DHT22;10495;50.922;4.760;2023-12-28T11:27:46;13.90;81.20
20672;DHT22;10495;50.922;4.760;2023-12-28T11:30:12;13.80;80.80
20672;DHT22;10495;50.922;4.760;2023-12-28T11:32:42;13.90;80.80
20672;DHT22;10495;50.922;4.760;2023-12-28T11:35:11;14.00;80.60
20672;DHT22;10495;50.922;4.760;2023-12-28T11:37:38;14.20;79.50
20672;DHT22;10495;50.922;4.760;2023-12-28T11:40:13;14.10;79.90
20672;DHT22;10495;50.922;4.760;2023-12-28T11:42:51;13.90;80.70
20672;DHT22;10495;50.922;4.760;2023-12-28T11:45:22;13.80;81.00
20672;DHT22;10495;50.922;4.760;2023-12-28T11:48:02;13.90;80.40
20672;DHT22;10495;50.922;4.760;2023-12-28T11:50:27;13.90;80.00
20672;DHT22;10495;50.922;4.760;2023-12-28T11:52:53;13.80;80.40
20672;DHT22;10495;50.922;4.760;2023-12-28T11:55:23;13.60;80.30
20672;DHT22;10495;50.922;4.760;2023-12-28T11:57:51;13.80;79.70
20672;DHT22;10495;50.922;4.760;2023-12-28T12:00:18;13.90;79.70
20672;DHT22;10495;50.922;4.760;2023-12-28T12:02:45;13.90;79.30
20672;DHT22;10495;50.922;4.760;2023-12-28T12:05:11;13.90;79.90
20672;DHT22;10495;50.922;4.760;2023-12-28T12:07:38;14.10;79.10
20672;DHT22;10495;50.922;4.760;2023-12-28T12:10:04;14.00;78.50
20672;DHT22;10495;50.922;4.760;2023-12-28T12:12:30;13.80;79.90
20672;DHT22;10495;50.922;4.760;2023-12-28T12:14:56;13.90;79.80
20672;DHT22;10495;50.922;4.760;2023-12-28T12:17:22;13.80;79.40
20672;DHT22;10495;50.922;4.760;2023-12-28T12:19:48;13.90;79.10
20672;DHT22;10495;50.922;4.760;2023-12-28T12:22:16;13.90;79.30
20672;DHT22;10495;50.922;4.760;2023-12-28T12:24:44;13.90;79.40
20672;DHT22;10495;50.922;4.760;2023-12-28T12:27:10;13.80;79.90
20672;DHT22;10495;50.922;4.760;2023-12-28T12:29:36;13.60;80.00
20672;DHT22;10495;50.922;4.760;2023-12-28T12:32:02;13.40;81.00
20672;DHT22;10495;50.922;4.760;2023-12-28T12:34:28;13.70;80.40
20672;DHT22;10495;50.922;4.760;2023-12-28T12:36:55;13.70;80.10
20672;DHT22;10495;50.922;4.760;2023-12-28T12:39:23;13.80;79.60
20672;DHT22;10495;50.922;4.760;2023-12-28T12:41:49;14.00;79.00
20672;DHT22;10495;50.922;4.760;2023-12-28T12:44:15;14.00;79.00
20672;DHT22;10495;50.922;4.760;2023-12-28T12:46:44;13.90;79.00
20672;DHT22;10495;50.922;4.760;2023-12-28T12:49:10;14.10;79.10
20672;DHT22;10495;50.922;4.760;2023-12-28T12:51:36;13.90;79.20
20672;DHT22;10495;50.922;4.760;2023-12-28T12:54:02;13.80;79.80
20672;DHT22;10495;50.922;4.760;2023-12-28T12:56:29;14.00;78.60
20672;DHT22;10495;50.922;4.760;2023-12-28T12:58:56;13.90;78.20
20672;DHT22;10495;50.922;4.760;2023-12-28T13:01:22;13.90;78.50
20672;DHT22;10495;50.922;4.760;2023-12-28T13:03:49;13.90;79.20
20672;DHT22;10495;50.922;4.760;2023-12-28T13:06:15;13.90;78.60
20672;DHT22;10495;50.922;4.760;2023-12-28T13:08:40;13.80;78.70
20672;DHT22;10495;50.922;4.760;2023-12-28T13:11:06;14.00;77.60
20672;DHT22;10495;50.922;4.760;2023-12-28T13:13:35;13.80;78.50
20672;DHT22;10495;50.922;4.760;2023-12-28T13:16:02;13.70;78.00
20672;DHT22;10495;50.922;4.760;2023-12-28T13:18:27;13.60;78.80
20672;DHT22;10495;50.922;4.760;2023-12-28T13:20:53;13.60;79.00
20672;DHT22;10495;50.922;4.760;2023-12-28T13:23:19;13.60;79.00
20672;DHT22;10495;50.922;4.760;2023-12-28T13:25:44;13.50;78.70
20672;DHT22;10495;50.922;4.760;2023-12-28T13:28:10;13.50;79.70
20672;DHT22;10495;50.922;4.760;2023-12-28T13:30:38;13.60;78.80
20672;DHT22;10495;50.922;4.760;2023-12-28T13:33:04;13.60;78.60
20672;DHT22;10495;50.922;4.760;2023-12-28T13:35:30;13.50;78.80
20672;DHT22;10495;50.922;4.760;2023-12-28T13:37:58;13.50;78.30
20672;DHT22;10495;50.922;4.760;2023-12-28T13:40:24;13.60;78.70
20672;DHT22;10495;50.922;4.760;2023-12-28T13:42:50;13.70;77.90
20672;DHT22;10495;50.922;4.760;2023-12-28T13:45:16;13.70;77.50
20672;DHT22;10495;50.922;4.760;2023-12-28T13:47:41;13.50;78.20
20672;DHT22;10495;50.922;4.760;2023-12-28T13:50:08;13.30;78.80
20672;DHT22;10495;50.922;4.760;2023-12-28T13:52:35;13.50;78.70
20672;DHT22;10495;50.922;4.760;2023-12-28T13:55:00;13.50;78.10
20672;DHT22;10495;50.922;4.760;2023-12-28T13:57:27;13.40;78.70
20672;DHT22;10495;50.922;4.760;2023-12-28T13:59:53;13.40;78.50
20672;DHT22;10495;50.922;4.760;2023-12-28T14:02:19;13.50;78.40
20672;DHT22;10495;50.922;4.760;2023-12-28T14:04:47;13.50;78.20
20672;DHT22;10495;50.922;4.760;2023-12-28T14:07:12;13.30;78.50
20672;DHT22;10495;50.922;4.760;2023-12-28T14:09:38;13.20;79.00
20672;DHT22;10495;50.922;4.760;2023-12-28T14:12:04;13.20;78.60
20672;DHT22;10495;50.922;4.760;2023-12-28T14:14:29;13.00;79.30
20672;DHT22;10495;50.922;4.760;2023-12-28T14:16:55;12.90;79.60
20672;DHT22;10495;50.922;4.760;2023-12-28T14:19:21;13.10;79.40
20672;DHT22;10495;50.922;4.760;2023-12-28T14:21:47;13.10;78.80
20672;DHT22;10495;50.922;4.760;2023-12-28T14:24:13;13.30;78.10
20672;DHT22;10495;50.922;4.760;2023-12-28T14:26:41;13.30;77.90
20672;DHT22;10495;50.922;4.760;2023-12-28T14:29:08;13.40;77.40
20672;DHT22;10495;50.922;4.760;2023-12-28T14:31:34;13.30;77.20
20672;DHT22;10495;50.922;4.760;2023-12-28T14:34:00;13.30;77.70
20672;DHT22;10495;50.922;4.760;2023-12-28T14:36:31;13.30;77.70
20672;DHT22;10495;50.922;4.760;2023-12-28T14:39:02;13.50;77.00
20672;DHT22;10495;50.922;4.760;2023-12-28T14:41:31;13.40;77.20
20672;DHT22;10495;50.922;4.760;2023-12-28T14:43:56;13.60;77.00
20672;DHT22;10495;50.922;4.760;2023-12-28T14:46:23;13.60;76.40
20672;DHT22;10495;50.922;4.760;2023-12-28T14:48:49;13.40;76.60
20672;DHT22;10495;50.922;4.760;2023-12-28T14:51:15;13.40;77.40
20672;DHT22;10495;50.922;4.760;2023-12-28T14:53:41;13.50;77.00
20672;DHT22;10495;50.922;4.760;2023-12-28T14:56:06;13.40;77.00
20672;DHT22;10495;50.922;4.760;2023-12-28T14:58:32;13.40;77.20
20672;DHT22;10495;50.922;4.760;2023-12-28T15:00:57;13.40;77.10
20672;DHT22;10495;50.922;4.760;2023-12-28T15:03:23;13.40;77.60
20672;DHT22;10495;50.922;4.760;2023-12-28T15:05:49;13.20;77.50
20672;DHT22;10495;50.922;4.760;2023-12-28T15:08:14;13.20;77.60
20672;DHT22;10495;50.922;4.760;2023-12-28T15:10:40;13.20;77.70
20672;DHT22;10495;50.922;4.760;2023-12-28T15:13:06;13.10;77.90
20672;DHT22;10495;50.922;4.760;2023-12-28T15:15:32;13.10;77.70
20672;DHT22;10495;50.922;4.760;2023-12-28T15:17:58;13.10;78.00
20672;DHT22;10495;50.922;4.760;2023-12-28T15:20:24;13.30;77.70
20672;DHT22;10495;50.922;4.760;2023-12-28T15:22:52;13.20;77.30
20672;DHT22;10495;50.922;4.760;2023-12-28T15:25:18;13.00;77.90
20672;DHT22;10495;50.922;4.760;2023-12-28T15:27:44;12.80;78.70